Map

Track Data

SID SEASON NUMBER BASIN SUBBASIN NAME ISO_TIME NATURE LAT LON WMO_WIND WMO_PRES WMO_AGENCY TRACK_TYPE DIST2LAND LANDFALL IFLAG USA_AGENCY USA_ATCF_ID USA_LAT USA_LON USA_RECORD USA_STATUS USA_WIND USA_PRES USA_SSHS USA_R34_NE USA_R34_SE USA_R34_SW USA_R34_NW USA_R50_NE USA_R50_SE USA_R50_SW USA_R50_NW USA_R64_NE USA_R64_SE USA_R64_SW USA_R64_NW USA_POCI USA_ROCI USA_RMW USA_EYE TOKYO_LAT TOKYO_LON TOKYO_GRADE TOKYO_WIND TOKYO_PRES TOKYO_R50_DIR TOKYO_R50_LONG TOKYO_R50_SHORT TOKYO_R30_DIR TOKYO_R30_LONG TOKYO_R30_SHORT TOKYO_LAND CMA_LAT CMA_LON CMA_CAT CMA_WIND CMA_PRES HKO_LAT HKO_LON HKO_CAT HKO_WIND HKO_PRES NEWDELHI_LAT NEWDELHI_LON NEWDELHI_GRADE NEWDELHI_WIND NEWDELHI_PRES NEWDELHI_CI NEWDELHI_DP NEWDELHI_POCI REUNION_LAT REUNION_LON REUNION_TYPE REUNION_WIND REUNION_PRES REUNION_TNUM REUNION_CI REUNION_RMW REUNION_R34_NE REUNION_R34_SE REUNION_R34_SW REUNION_R34_NW REUNION_R50_NE REUNION_R50_SE REUNION_R50_SW REUNION_R50_NW REUNION_R64_NE REUNION_R64_SE REUNION_R64_SW REUNION_R64_NW BOM_LAT BOM_LON BOM_TYPE BOM_WIND BOM_PRES BOM_TNUM BOM_CI BOM_RMW BOM_R34_NE BOM_R34_SE BOM_R34_SW BOM_R34_NW BOM_R50_NE BOM_R50_SE BOM_R50_SW BOM_R50_NW BOM_R64_NE BOM_R64_SE BOM_R64_SW BOM_R64_NW BOM_ROCI BOM_POCI BOM_EYE BOM_POS_METHOD BOM_PRES_METHOD NADI_LAT NADI_LON NADI_CAT NADI_WIND NADI_PRES WELLINGTON_LAT WELLINGTON_LON WELLINGTON_WIND WELLINGTON_PRES DS824_LAT DS824_LON DS824_STAGE DS824_WIND DS824_PRES TD9636_LAT TD9636_LON TD9636_STAGE TD9636_WIND TD9636_PRES TD9635_LAT TD9635_LON TD9635_WIND TD9635_PRES TD9635_ROCI NEUMANN_LAT NEUMANN_LON NEUMANN_CLASS NEUMANN_WIND NEUMANN_PRES MLC_LAT MLC_LON MLC_CLASS MLC_WIND MLC_PRES USA_GUST BOM_GUST BOM_GUST_PER REUNION_GUST REUNION_GUST_PER USA_SEAHGT USA_SEARAD_NE USA_SEARAD_SE USA_SEARAD_SW USA_SEARAD_NW STORM_SPEED STORM_DIR
1867268N18278 1867 20 NA CS NOT_NAMED 1867-09-25 00:00:00 TS 18.2000 -82.0000 main 357 329 _____________O -1 18.2000 -82.0000 TD 30 10 276
1867268N18278 1867 20 NA CS NOT_NAMED 1867-09-25 03:00:00 TS 18.2503 -82.4999 main 338 312 _____________P -1 18.2503 -82.4999 TD 30 10 276
1867268N18278 1867 20 NA CS NOT_NAMED 1867-09-25 06:00:00 TS 18.3000 -83.0000 main 312 292 _____________O -1 18.3000 -83.0000 TD 30 10 276
1867268N18278 1867 20 NA CS NOT_NAMED 1867-09-25 09:00:00 TS 18.3499 -83.5000 main 292 289 _____________P -1 18.3499 -83.5000 TD 30 10 276
1867268N18278 1867 20 NA CS NOT_NAMED 1867-09-25 12:00:00 TS 18.4000 -84.0000 main 289 281 _____________O -1 18.4000 -84.0000 TD 30 10 276
1867268N18278 1867 20 NA CS NOT_NAMED 1867-09-25 15:00:00 TS 18.4574 -84.5000 main 291 274 _____________P -1 18.4574 -84.5000 TD 30 10 276
1867268N18278 1867 20 NA CS NOT_NAMED 1867-09-25 18:00:00 TS 18.5000 -85.0000 main 274 224 _____________O -1 18.5000 -85.0000 TD 30 10 273
1867268N18278 1867 20 NA CS NOT_NAMED 1867-09-25 21:00:00 TS 18.5000 -85.5151 main 224 174 _____________P -1 18.5000 -85.5151 TD 32 9 270
1867268N18278 1867 20 NA CS NOT_NAMED 1867-09-26 00:00:00 TS 18.5000 -86.0000 main 174 134 _____________O -1 18.5000 -86.0000 TS 35 9 273
1867268N18278 1867 20 NA CS NOT_NAMED 1867-09-26 03:00:00 TS 18.5499 -86.4224 main 134 90 _____________P -1 18.5499 -86.4224 TS 35 8 278
1867268N18278 1867 20 NA CS NOT_NAMED 1867-09-26 06:00:00 TS 18.6000 -86.8000 main 90 62 _____________O -1 18.6000 -86.8000 TS 35 7 274
1867268N18278 1867 20 NA CS NOT_NAMED 1867-09-26 09:00:00 TS 18.5998 -87.1501 main 52 21 _____________P -1 18.5998 -87.1501 TS 35 7 270
1867268N18278 1867 20 NA CS NOT_NAMED 1867-09-26 12:00:00 TS 18.6000 -87.5000 main 21 0 _____________O -1 18.6000 -87.5000 TS 35 7 273
1867268N18278 1867 20 NA NA NOT_NAMED 1867-09-26 15:00:00 TS 18.6425 -87.9000 main 0 0 _____________P -1 18.6425 -87.9000 TS 35 8 278
1867268N18278 1867 20 NA NA NOT_NAMED 1867-09-26 18:00:00 TS 18.7000 -88.3000 main 0 0 _____________O -1 18.7000 -88.3000 TS 35 7 278
1867268N18278 1867 20 NA NA NOT_NAMED 1867-09-26 21:00:00 TS 18.7423 -88.6501 main 0 0 _____________P -1 18.7423 -88.6501 TS 35 7 279
1867268N18278 1867 20 NA NA NOT_NAMED 1867-09-27 00:00:00 TS 18.8000 -89.0000 main 0 0 _____________O -1 18.8000 -89.0000 TS 35 7 282
1867268N18278 1867 20 NA NA NOT_NAMED 1867-09-27 03:00:00 TS 18.8925 -89.4000 main 0 0 _____________P -1 18.8925 -89.4000 TS 35 8 285
1867268N18278 1867 20 NA NA NOT_NAMED 1867-09-27 06:00:00 TS 19.0000 -89.8000 main 0 0 _____________O -1 19.0000 -89.8000 TS 35 7 286
1867268N18278 1867 20 NA NA NOT_NAMED 1867-09-27 09:00:00 TS 19.0998 -90.1501 main 0 0 _____________P -1 19.0998 -90.1501 TS 37 7 287
1867268N18278 1867 20 NA NA NOT_NAMED 1867-09-27 12:00:00 TS 19.2000 -90.5000 main 0 0 _____________O -1 19.2000 -90.5000 TS 40 7 286
1867268N18278 1867 20 NA GM NOT_NAMED 1867-09-27 15:00:00 TS 19.3075 -90.9000 main 10 10 _____________P -1 19.3075 -90.9000 TS 40 8 285
1867268N18278 1867 20 NA GM NOT_NAMED 1867-09-27 18:00:00 TS 19.4000 -91.3000 main 38 38 _____________O -1 19.4000 -91.3000 TS 40 7 281
1867268N18278 1867 20 NA GM NOT_NAMED 1867-09-27 21:00:00 TS 19.4500 -91.6726 main 59 59 _____________P -1 19.4500 -91.6726 TS 35 7 279
1867268N18278 1867 20 NA GM NOT_NAMED 1867-09-28 00:00:00 TS 19.5000 -92.0000 main 85 85 _____________O -1 19.5000 -92.0000 TD 30 6 284
1867268N18278 1867 20 NA GM NOT_NAMED 1867-09-28 03:00:00 TS 19.5924 -92.2650 main 111 111 _____________P -1 19.5924 -92.2650 TD 30 5 293
1867268N18278 1867 20 NA GM NOT_NAMED 1867-09-28 06:00:00 TS 19.7000 -92.5000 main 123 123 _____________O -1 19.7000 -92.5000 TD 30 5 294
1867268N18278 1867 20 NA GM NOT_NAMED 1867-09-28 09:00:00 TS 19.8000 -92.7500 main 134 134 _____________P -1 19.8000 -92.7500 TD 30 5 293
1867268N18278 1867 20 NA GM NOT_NAMED 1867-09-28 12:00:00 TS 19.9000 -93.0000 main 148 148 _____________O -1 19.9000 -93.0000 TD 30 5 294
1867268N18278 1867 20 NA GM NOT_NAMED 1867-09-28 15:00:00 TS 20.0075 -93.2500 main 165 168 _____________P -1 20.0075 -93.2500 TD 30 5 293
1867268N18278 1867 20 NA GM NOT_NAMED 1867-09-28 18:00:00 TS 20.1000 -93.5000 main 187 187 _____________O -1 20.1000 -93.5000 TD 30 5 285
1867268N18278 1867 20 NA GM NOT_NAMED 1867-09-28 21:00:00 TS 20.1350 -93.7576 main 201 201 _____________P -1 20.1350 -93.7576 TD 27 5 282
1867268N18278 1867 20 NA GM NOT_NAMED 1867-09-29 00:00:00 TS 20.2000 -94.0000 main 207 202 _____________O -1 20.2000 -94.0000 TD 25 5 301
1867268N18278 1867 20 NA GM NOT_NAMED 1867-09-29 03:00:00 TS 20.3850 -94.2075 main 217 212 _____________P -1 20.3850 -94.2075 TD 30 6 317
1867268N18278 1867 20 NA GM NOT_NAMED 1867-09-29 06:00:00 TS 20.6000 -94.4000 main 222 207 _____________O -1 20.6000 -94.4000 TS 35 5 315
1867268N18278 1867 20 NA GM NOT_NAMED 1867-09-29 09:00:00 TS 20.7575 -94.6001 main 212 200 _____________P -1 20.7575 -94.6001 TS 35 5 309
1867268N18278 1867 20 NA GM NOT_NAMED 1867-09-29 12:00:00 TS 20.9000 -94.8000 main 200 190 _____________O -1 20.9000 -94.8000 TS 35 5 307
1867268N18278 1867 20 NA GM NOT_NAMED 1867-09-29 15:00:00 TS 21.0500 -95.0075 main 198 190 _____________P -1 21.0500 -95.0075 TS 40 5 309
1867268N18278 1867 20 NA GM NOT_NAMED 1867-09-29 18:00:00 TS 21.2000 -95.2000 main 190 182 _____________O -1 21.2000 -95.2000 TS 45 4 311
1867268N18278 1867 20 NA GM NOT_NAMED 1867-09-29 21:00:00 TS 21.3350 -95.3651 main 182 182 _____________P -1 21.3350 -95.3651 TS 50 4 317
1867268N18278 1867 20 NA GM NOT_NAMED 1867-09-30 00:00:00 TS 21.5000 -95.5000 main 186 175 _____________O -1 21.5000 -95.5000 TS 55 5 331
1867268N18278 1867 20 NA GM NOT_NAMED 1867-09-30 03:00:00 TS 21.7425 -95.6075 main 176 168 _____________P -1 21.7425 -95.6075 TS 57 5 340
1867268N18278 1867 20 NA GM NOT_NAMED 1867-09-30 06:00:00 TS 22.0000 -95.7000 main 171 164 _____________O -1 22.0000 -95.7000 TS 60 5 339
1867268N18278 1867 20 NA GM NOT_NAMED 1867-09-30 09:00:00 TS 22.2000 -95.8001 main 168 164 _____________P -1 22.2000 -95.8001 TS 67 4 335
1867268N18278 1867 20 NA GM NOT_NAMED 1867-09-30 12:00:00 TS 22.4000 -95.9000 main 169 167 _____________O -1 22.4000 -95.9000 HU 75 5 337
1867268N18278 1867 20 NA GM NOT_NAMED 1867-09-30 15:00:00 TS 22.6425 -96.0075 main 174 174 _____________P -1 22.6425 -96.0075 HU 80 5 340
1867268N18278 1867 20 NA GM NOT_NAMED 1867-09-30 18:00:00 TS 22.9000 -96.1000 main 174 173 _____________O -1 22.9000 -96.1000 HU 85 5 345
1867268N18278 1867 20 NA GM NOT_NAMED 1867-09-30 21:00:00 TS 23.1500 -96.1501 main 163 163 _____________P -1 23.1500 -96.1501 HU 90 5 350
1867268N18278 1867 20 NA GM NOT_NAMED 1867-10-01 00:00:00 TS 23.4000 -96.2000 main 163 152 _____________O -1 23.4000 -96.2000 HU 95 5 345
1867268N18278 1867 20 NA GM NOT_NAMED 1867-10-01 03:00:00 TS 23.6575 -96.2999 main 152 142 _____________P -1 23.6575 -96.2999 HU 97 5 340
1867268N18278 1867 20 NA GM NOT_NAMED 1867-10-01 06:00:00 NR 23.9000 -96.4000 main 142 139 _____________O -1 23.9000 -96.4000 MH 100 5 343
1867268N18278 1867 20 NA GM NOT_NAMED 1867-10-01 09:00:00 NR 24.1000 -96.4501 main 129 123 _____________P -1 24.1000 -96.4501 MH 102 4 348
1867268N18278 1867 20 NA GM NOT_NAMED 1867-10-01 12:00:00 NR 24.3000 -96.5000 main 123 106 _____________O -1 24.3000 -96.5000 MH 105 5 343
1867268N18278 1867 20 NA GM NOT_NAMED 1867-10-01 15:00:00 NR 24.5425 -96.5999 main 106 83 _____________P -1 24.5425 -96.5999 MH 107 5 340
1867268N18278 1867 20 NA GM NOT_NAMED 1867-10-01 18:00:00 NR 24.8000 -96.7000 main 83 68 _____________O -1 24.8000 -96.7000 MH 110 5 347
1867268N18278 1867 20 NA GM NOT_NAMED 1867-10-01 21:00:00 NR 25.0499 -96.7278 main 73 73 _____________P -1 25.0499 -96.7278 MH 115 1 0
1867268N18278 1867 20 NA GM NOT_NAMED 1867-10-02 00:00:00 TS 24.7000 -96.7000 90 hurdat_atl main 87 78 O____________O hurdat_atl AL071867 23.5000 -96.5000 HU 90 2 25.3000 -96.8000 MH 120 4 197
1867268N18278 1867 20 NA GM NOT_NAMED 1867-10-02 03:00:00 TS 24.6963 -96.8424 main 78 55 P____________P AL071867 23.8425 -96.6573 HU 90 2 25.5501 -97.0274 MH 110 3 297
1867268N18278 1867 20 NA GM NOT_NAMED 1867-10-02 06:00:00 TS 24.8400 -97.0000 90 hurdat_atl main 55 32 O____________O hurdat_atl AL071867 24.2000 -96.8000 HU 90 2 25.8000 -97.3000 MH 100 5 326
1867268N18278 1867 20 NA GM NOT_NAMED 1867-10-02 09:00:00 TS 25.0758 -97.1250 main 32 10 P____________P AL071867 24.5850 -96.9151 HU 90 2 26.0575 -97.5449 MH 90 6 340
1867268N18278 1867 20 NA GM NOT_NAMED 1867-10-02 12:00:00 TS 25.4333 -97.2333 90 hurdat_atl main 10 0 O____________O hurdat_atl AL071867 25.0000 -97.0000 HU 90 2 26.3000 -97.7000 HU 80 7 348
1867268N18278 1867 20 NA NA NOT_NAMED 1867-10-02 15:00:00 TS 25.7999 -97.2998 main 0 0 P____________P AL071867 25.4500 -97.0873 HU 90 2 26.4998 -97.7250 HU 72 7 356
1867268N18278 1867 20 NA GM NOT_NAMED 1867-10-02 18:00:00 TS 26.1667 -97.2667 90 hurdat_atl main 0 0 O____________O hurdat_atl AL071867 25.9000 -97.1000 HU 90 2 26.7000 -97.6000 HU 65 8 13
1867268N18278 1867 20 NA GM NOT_NAMED 1867-10-02 21:00:00 TS 26.5316 -97.1168 main 29 29 P____________P AL071867 26.3225 -96.9951 HU 90 2 26.9499 -97.3601 HU 70 8 27
1867268N18278 1867 20 NA GM NOT_NAMED 1867-10-03 00:00:00 TS 26.8667 -96.8667 90 hurdat_atl main 59 59 O____________O hurdat_atl AL071867 26.7000 -96.8000 HU 90 2 27.2000 -97.0000 HU 75 8 38
1867268N18278 1867 20 NA GM NOT_NAMED 1867-10-03 03:00:00 TS 27.1433 -96.5748 main 82 76 P____________P AL071867 27.0149 -96.5798 HU 90 2 27.4001 -96.5648 HU 77 8 47
1867268N18278 1867 20 NA GM NOT_NAMED 1867-10-03 06:00:00 TS 27.4000 -96.2333 90 hurdat_atl main 104 92 O____________O hurdat_atl AL071867 27.3000 -96.3000 HU 90 2 27.6000 -96.1000 HU 80 8 49
1867268N18278 1867 20 NA GM NOT_NAMED 1867-10-03 09:00:00 TS 27.6757 -95.8864 main 92 87 P____________P AL071867 27.5923 -95.9871 HU 90 2 27.8424 -95.6849 HU 82 9 49
1867268N18278 1867 20 NA GM NOT_NAMED 1867-10-03 12:00:00 TS 27.9667 -95.5000 90 hurdat_atl main 82 73 O____________O hurdat_atl AL071867 27.9000 -95.6000 HU 90 2 28.1000 -95.3000 HU 85 10 50
1867268N18278 1867 20 NA GM NOT_NAMED 1867-10-03 15:00:00 TS 28.3059 -95.0503 main 73 66 P____________P AL071867 28.2650 -95.1228 HU 90 2 28.3876 -94.9052 HU 87 10 51
1867268N18278 1867 20 NA GM NOT_NAMED 1867-10-03 18:00:00 TS 28.6000 -94.6000 90 hurdat_atl main 73 73 O____________O hurdat_atl AL071867 28.6000 -94.6000 HU 90 2 28.6000 -94.6000 HU 90 9 57
1867268N18278 1867 20 NA GM NOT_NAMED 1867-10-03 21:00:00 TS 28.7731 -94.2281 main 87 87 P____________P AL071867 28.8447 -94.1073 HU 90 2 28.6298 -94.4697 HU 90 7 67
1867268N18278 1867 20 NA GM NOT_NAMED 1867-10-04 00:00:00 TS 28.8667 -93.8667 90 hurdat_atl main 89 89 O____________O hurdat_atl AL071867 29.0000 -93.6000 HU 90 2 28.6000 -94.4000 HU 90 7 76
1867268N18278 1867 20 NA GM NOT_NAMED 1867-10-04 03:00:00 TS 28.9366 -93.4524 main 93 80 P____________P AL071867 29.0800 -93.0498 HU 90 2 28.6500 -94.2576 HU 90 7 82
1867268N18278 1867 20 NA GM NOT_NAMED 1867-10-04 06:00:00 TS 28.9667 -93.0333 90 hurdat_atl main 77 67 O____________O hurdat_atl AL071867 29.1000 -92.5000 HU 90 2 28.7000 -94.1000 HU 90 7 88
1867268N18278 1867 20 NA GM NOT_NAMED 1867-10-04 09:00:00 TS 28.9574 -92.6502 main 67 55 P____________P AL071867 29.0861 -91.9929 HU 90 2 28.6999 -93.9649 HU 90 7 90
1867268N18278 1867 20 NA GM NOT_NAMED 1867-10-04 12:00:00 TS 28.9667 -92.2667 90 hurdat_atl main 55 55 O____________O hurdat_atl AL071867 29.1000 -91.5000 HU 90 2 28.7000 -93.8000 HU 90 7 83
1867268N18278 1867 20 NA GM NOT_NAMED 1867-10-04 15:00:00 TS 29.0474 -91.8675 90 hurdat_atl main 62 38 O____________P hurdat_atl AL071867 29.2000 -91.0000 L HU 90 2 28.7422 -93.6025 HU 90 7 82
1867268N18278 1867 20 NA GM NOT_NAMED 1867-10-04 18:00:00 TS 29.0667 -91.5000 90 hurdat_atl main 38 11 O____________O hurdat_atl AL071867 29.2000 -90.6000 HU 90 2 28.8000 -93.3000 HU 90 7 87
1867268N18278 1867 20 NA GM NOT_NAMED 1867-10-04 21:00:00 TS 29.0829 -91.0495 main 9 0 P____________P AL071867 29.2001 -90.1068 HU 90 2 28.8486 -92.9348 HU 90 9 88
1867268N18278 1867 20 NA GM NOT_NAMED 1867-10-05 00:00:00 TS 29.1000 -90.5000 90 hurdat_atl main 9 0 O____________O hurdat_atl AL071867 29.2000 -89.6000 HU 90 2 28.9000 -92.3000 HU 90 10 88
1867268N18278 1867 20 NA GM NOT_NAMED 1867-10-05 03:00:00 TS 29.1144 -89.8750 main 19 0 P____________P AL071867 29.1921 -89.1999 HU 90 2 28.9591 -91.2252 HU 87 11 88
1867268N18278 1867 20 NA NA NOT_NAMED 1867-10-05 06:00:00 TS 29.1333 -89.2000 90 hurdat_atl main 0 0 O____________O hurdat_atl AL071867 29.2000 -88.8000 HU 90 2 29.0000 -90.0000 HU 85 12 88
1867268N18278 1867 20 NA GM NOT_NAMED 1867-10-05 09:00:00 TS 29.1634 -88.5507 main 40 40 P____________P AL071867 29.2500 -88.3152 HU 85 2 28.9901 -89.0217 HU 82 12 87
1867268N18278 1867 20 NA GM NOT_NAMED 1867-10-05 12:00:00 TS 29.2000 -87.8667 80 hurdat_atl main 107 107 O____________O hurdat_atl AL071867 29.3000 -87.8000 HU 80 1 29.0000 -88.0000 HU 80 12 86
1867268N18278 1867 20 NA GM NOT_NAMED 1867-10-05 15:00:00 TS 29.2412 -87.1486 main 123 113 P____________P AL071867 29.2998 -87.2998 HU 80 1 29.0814 -86.7687 HU 70 12 86
1867268N18278 1867 20 NA GM NOT_NAMED 1867-10-05 18:00:00 TS 29.2800 -86.5200 80 hurdat_atl main 115 81 O____________O hurdat_atl AL071867 29.3000 -86.8000 HU 80 1 29.2000 -85.4000 TS 60 10 84
1867268N18278 1867 20 NA GM NOT_NAMED 1867-10-05 21:00:00 TS 29.3441 -86.0557 main 81 51 P_____________ AL071867 29.3498 -86.3002 HU 80 1 TS 6 79
1867268N18278 1867 20 NA GM NOT_NAMED 1867-10-06 00:00:00 TS 29.4000 -85.8000 80 hurdat_atl main 51 33 O_____________ hurdat_atl AL071867 29.4000 -85.8000 HU 80 1 7 85
1867268N18278 1867 20 NA GM NOT_NAMED 1867-10-06 03:00:00 TS 29.4000 -85.2848 main 33 33 P_____________ AL071867 29.4000 -85.2848 HU 80 1 9 90
1867268N18278 1867 20 NA GM NOT_NAMED 1867-10-06 06:00:00 TS 29.4000 -84.8000 80 hurdat_atl main 34 34 O_____________ hurdat_atl AL071867 29.4000 -84.8000 HU 80 1 7 88
1867268N18278 1867 20 NA GM NOT_NAMED 1867-10-06 09:00:00 TS 29.4325 -84.4272 main 53 44 P_____________ AL071867 29.4325 -84.4272 HU 75 1 7 82
1867268N18278 1867 20 NA GM NOT_NAMED 1867-10-06 12:00:00 TS 29.5000 -84.0000 70 hurdat_atl main 51 0 O_____________ hurdat_atl AL071867 29.5000 -84.0000 HU 70 1 9 79
1867268N18278 1867 20 NA GM NOT_NAMED 1867-10-06 15:00:00 TS 29.6000 -83.4000 70 hurdat_atl main 0 0 O_____________ hurdat_atl AL071867 29.6000 -83.4000 L HU 70 1 8 83
1867268N18278 1867 20 NA NA NOT_NAMED 1867-10-06 18:00:00 TS 29.6000 -83.1000 60 hurdat_atl main 0 0 O_____________ hurdat_atl AL071867 29.6000 -83.1000 TS 60 0 5 82
1867268N18278 1867 20 NA NA NOT_NAMED 1867-10-06 21:00:00 TS 29.6726 -82.8068 main 0 0 P_____________ AL071867 29.6726 -82.8068 TS 55 0 6 69
1867268N18278 1867 20 NA NA NOT_NAMED 1867-10-07 00:00:00 TS 29.8000 -82.5000 50 hurdat_atl main 0 0 O_____________ hurdat_atl AL071867 29.8000 -82.5000 TS 50 0 6 65
1867268N18278 1867 20 NA NA NOT_NAMED 1867-10-07 03:00:00 TS 29.9349 -82.1649 main 0 0 P_____________ AL071867 29.9349 -82.1649 TS 45 0 7 64
1867268N18278 1867 20 NA NA NOT_NAMED 1867-10-07 06:00:00 TS 30.1000 -81.8000 40 hurdat_atl main 0 0 O_____________ hurdat_atl AL071867 30.1000 -81.8000 TS 40 0 7 61
1867268N18278 1867 20 NA NA NOT_NAMED 1867-10-07 09:00:00 TS 30.2848 -81.4223 main 9 9 P_____________ AL071867 30.2848 -81.4223 TS 40 0 8 60
1867268N18278 1867 20 NA NA NOT_NAMED 1867-10-07 12:00:00 TS 30.5000 -81.0000 40 hurdat_atl main 44 44 O_____________ hurdat_atl AL071867 30.5000 -81.0000 TS 40 0 9 60
1867268N18278 1867 20 NA NA NOT_NAMED 1867-10-07 15:00:00 TS 30.7349 -80.5223 main 85 85 P_____________ AL071867 30.7349 -80.5223 TS 40 0 10 60
1867268N18278 1867 20 NA NA NOT_NAMED 1867-10-07 18:00:00 TS 31.0000 -80.0000 40 hurdat_atl main 127 127 O_____________ hurdat_atl AL071867 31.0000 -80.0000 TS 40 0 11 59
1867268N18278 1867 20 NA NA NOT_NAMED 1867-10-07 21:00:00 TS 31.2847 -79.4720 main 148 143 P_____________ AL071867 31.2847 -79.4720 TS 45 0 11 57
1867268N18278 1867 20 NA NA NOT_NAMED 1867-10-08 00:00:00 TS 31.6000 -78.9000 50 hurdat_atl main 152 150 O_____________ hurdat_atl AL071867 31.6000 -78.9000 TS 50 0 12 58
1867268N18278 1867 20 NA NA NOT_NAMED 1867-10-08 03:00:00 TS 31.9426 -78.2500 main 166 158 P_____________ AL071867 31.9426 -78.2500 TS 50 0 13 58
1867268N18278 1867 20 NA NA NOT_NAMED 1867-10-08 06:00:00 TS 32.3000 -77.6000 50 hurdat_atl main 179 162 O_____________ hurdat_atl AL071867 32.3000 -77.6000 TS 50 0 13 55
1867268N18278 1867 20 NA NA NOT_NAMED 1867-10-08 09:00:00 TS 32.6646 -77.0273 main 162 159 P_____________ AL071867 32.6646 -77.0273 TS 50 0 12 53
1867268N18278 1867 20 NA NA NOT_NAMED 1867-10-08 12:00:00 TS 33.0000 -76.5000 50 hurdat_atl main 171 162 O_____________ hurdat_atl AL071867 33.0000 -76.5000 TS 50 0 11 55
1867268N18278 1867 20 NA NA NOT_NAMED 1867-10-08 15:00:00 TS 33.2723 -75.9846 main 162 157 P_____________ AL071867 33.2723 -75.9846 TS 50 0 10 59
1867268N18278 1867 20 NA NA NOT_NAMED 1867-10-08 18:00:00 TS 33.5000 -75.5000 50 hurdat_atl main 162 158 O_____________ hurdat_atl AL071867 33.5000 -75.5000 TS 50 0 9 61
1867268N18278 1867 20 NA NA NOT_NAMED 1867-10-08 21:00:00 TS 33.7150 -75.0199 main 177 177 P_____________ AL071867 33.7150 -75.0199 TS 50 0 8 62
1867268N18278 1867 20 NA NA NOT_NAMED 1867-10-09 00:00:00 TS 33.9000 -74.6000 50 hurdat_atl main 191 191 O_____________ hurdat_atl AL071867 33.9000 -74.6000 TS 50 0 7 61
1867268N18278 1867 20 NA NA NOT_NAMED 1867-10-09 03:00:00 TS 34.0573 -74.2697 main 203 203 P_____________ AL071867 34.0573 -74.2697 TS 50 0 6 59
1867268N18278 1867 20 NA NA NOT_NAMED 1867-10-09 06:00:00 TS 34.2000 -74.0000 50 hurdat_atl main 219 218 O_____________ hurdat_atl AL071867 34.2000 -74.0000 TS 50 0 5 56
1867268N18278 1867 20 NA NA NOT_NAMED 1867-10-09 09:00:00 TS 34.3574 -73.7350 main 225 225 P_____________ AL071867 34.3574 -73.7350 TS 50 0 5 54
1867268N18278 1867 20 NA NA NOT_NAMED 1867-10-09 12:00:00 TS 34.5000 -73.5000 50 hurdat_atl main 232 232 O_____________ hurdat_atl AL071867 34.5000 -73.5000 TS 50 0 4 55
1867268N18278 1867 20 NA NA NOT_NAMED 1867-10-09 15:00:00 TS 34.6101 -73.2925 main 240 240 P_____________ AL071867 34.6101 -73.2925 TS 50 0 4 59
1867268N18278 1867 20 NA NA NOT_NAMED 1867-10-09 18:00:00 TS 34.7000 -73.1000 50 hurdat_atl main 249 O_____________ hurdat_atl AL071867 34.7000 -73.1000 TS 50 0 4 60

About IBTrACS Database

This database is a web-friendly format of International Best Track Archive for Climate Stewardship (IBTrACS), a global best track data archive curated by NOAA dating back to 1842.

Updated: 2021-10-08